Time;durP1;ratioP1;P1;durP2;ratioP2;P2;SDS_P1;SDS_P2;PMS_P1;PMS_P2;Temp;Humidity;BMP_temperature;BMP_pressure;BME280_temperature;BME280_humidity;BME280_pressure;Samples;Min_cycle;Max_cycle;Signal;HPM_P1;HPM_P2
2021/07/13 00:03:15;;;;;;;13.35;7.30;;;;;;;20.09;65.72;99155.63;10366281;28;20131;-61
2021/07/13 00:08:17;;;;;;;10.75;6.95;;;;;;;20.08;66.04;99161.09;10370504;28;20049;-61
2021/07/13 00:13:18;;;;;;;10.23;6.07;;;;;;;20.06;66.03;99157.78;10385759;28;20050;-61
2021/07/13 00:18:20;;;;;;;10.85;8.48;;;;;;;19.73;66.55;99151.69;10370138;28;20050;-61
2021/07/13 00:23:22;;;;;;;9.93;6.65;;;;;;;19.68;66.53;99158.50;10370673;28;20783;-61
2021/07/13 00:28:23;;;;;;;9.73;6.78;;;;;;;19.58;67.18;99158.69;10369585;28;20514;-61
2021/07/13 00:33:25;;;;;;;9.00;6.80;;;;;;;19.77;67.06;99147.69;10370192;28;20403;-61
2021/07/13 00:38:27;;;;;;;14.70;7.15;;;;;;;19.92;66.78;99145.22;10369532;28;20129;-61
2021/07/13 00:43:29;;;;;;;12.77;7.70;;;;;;;19.83;66.32;99141.75;10369516;28;20449;-61
2021/07/13 00:48:30;;;;;;;15.13;11.00;;;;;;;19.63;67.41;99142.25;10369287;28;20553;-61
2021/07/13 00:53:32;;;;;;;10.10;6.82;;;;;;;19.57;67.75;99137.63;10369313;28;20522;-61
2021/07/13 00:58:34;;;;;;;11.32;7.50;;;;;;;19.77;67.30;99133.59;10368547;28;20089;-61
2021/07/13 01:03:36;;;;;;;13.10;6.78;;;;;;;19.87;67.27;99134.28;10368739;28;20133;-61
2021/07/13 01:08:57;;;;;;;12.40;7.97;;;;;;;19.77;67.53;99129.13;10368398;28;20057;-61
2021/07/13 01:14:15;;;;;;;13.00;7.80;;;;;;;19.87;67.21;99132.44;10366723;28;21387;-61
2021/07/13 01:19:35;;;;;;;14.77;9.20;;;;;;;19.91;66.97;99135.63;10365877;28;20140;-61
2021/07/13 01:24:56;;;;;;;9.63;7.65;;;;;;;19.91;67.10;99133.78;10367555;28;20061;-61
2021/07/13 01:30:03;;;;;;;10.20;7.05;;;;;;;19.89;66.62;99126.97;10366361;28;20054;-61
2021/07/13 01:35:09;;;;;;;12.75;7.00;;;;;;;19.77;67.26;99128.28;10343768;28;20467;-61
2021/07/13 01:40:11;;;;;;;14.98;9.85;;;;;;;19.89;67.47;99124.31;10367115;28;20089;-61
2021/07/13 01:45:14;;;;;;;15.27;10.13;;;;;;;19.95;67.11;99126.31;10366572;28;20088;-61
2021/07/13 01:50:16;;;;;;;11.95;7.80;;;;;;;19.94;66.93;99120.19;10367286;28;20120;-61
2021/07/13 01:55:17;;;;;;;12.85;8.30;;;;;;;19.98;67.30;99120.66;10366365;28;20153;-61
2021/07/13 02:00:19;;;;;;;34.63;12.95;;;;;;;19.96;67.04;99118.19;10366252;28;20845;-61
2021/07/13 02:05:25;;;;;;;88.78;14.65;;;;;;;19.91;67.31;99122.34;10373463;28;20049;-61
2021/07/13 02:10:27;;;;;;;10.80;9.68;;;;;;;19.89;67.29;99116.34;10388560;28;20141;-61
2021/07/13 02:15:28;;;;;;;13.68;8.35;;;;;;;19.93;66.96;99115.84;10372880;28;20137;-61
2021/07/13 02:20:30;;;;;;;10.82;8.05;;;;;;;19.94;67.14;99112.22;10372610;28;20401;-61
2021/07/13 02:25:33;;;;;;;10.57;7.72;;;;;;;19.84;66.93;99110.75;10372377;28;20134;-61
2021/07/13 02:30:36;;;;;;;11.38;9.35;;;;;;;19.72;67.10;99110.25;10371989;28;20129;-60
2021/07/13 02:35:43;;;;;;;10.30;8.90;;;;;;;19.78;67.29;99112.22;10371850;28;20100;-61
2021/07/13 02:40:49;;;;;;;10.10;8.73;;;;;;;19.84;67.23;99114.22;10370741;28;20085;-61
2021/07/13 02:45:53;;;;;;;15.30;11.73;;;;;;;19.63;67.57;99108.59;10371331;28;20139;-61
2021/07/13 02:50:57;;;;;;;16.20;12.90;;;;;;;19.53;67.97;99102.66;10371146;28;20490;-61
2021/07/13 02:56:00;;;;;;;14.07;10.30;;;;;;;19.46;67.75;99106.97;10371003;28;20128;-60
2021/07/13 03:01:05;;;;;;;9.98;7.35;;;;;;;19.44;67.91;99106.28;10371052;28;20081;-61
2021/07/13 03:06:09;;;;;;;17.42;11.73;;;;;;;19.39;67.84;99104.16;10364701;28;20077;-61
2021/07/13 03:11:11;;;;;;;12.23;10.43;;;;;;;19.41;68.39;99102.19;10364378;28;20460;-61
2021/07/13 03:16:13;;;;;;;13.50;11.45;;;;;;;19.52;68.29;99105.47;10362665;28;20137;-61
2021/07/13 03:21:22;;;;;;;26.17;13.48;;;;;;;19.61;68.38;99113.25;10363245;28;20085;-61
2021/07/13 03:26:24;;;;;;;309.58;21.35;;;;;;;19.65;68.33;99116.38;10363132;28;20418;-61
2021/07/13 03:31:27;;;;;;;93.78;20.52;;;;;;;19.65;68.11;99114.56;10363135;28;20061;-61
2021/07/13 03:36:30;;;;;;;17.65;11.55;;;;;;;19.50;68.17;99108.31;10362345;28;20085;-61
2021/07/13 03:41:33;;;;;;;17.35;13.02;;;;;;;19.50;68.58;99113.63;10363495;28;20049;-61
2021/07/13 03:46:36;;;;;;;16.55;12.27;;;;;;;19.56;68.12;99114.75;10362429;28;20057;-61
2021/07/13 03:51:42;;;;;;;17.02;13.07;;;;;;;19.57;67.97;99108.44;10363011;28;20085;-61
2021/07/13 03:56:44;;;;;;;18.85;14.38;;;;;;;19.60;67.82;99106.31;10362506;28;20064;-61
2021/07/13 04:01:46;;;;;;;11.35;9.43;;;;;;;19.38;68.02;99105.16;10363082;28;20053;-60
2021/07/13 04:06:49;;;;;;;14.35;10.70;;;;;;;19.32;68.57;99102.34;10362979;28;20054;-61
2021/07/13 04:11:50;;;;;;;13.20;10.70;;;;;;;19.39;68.21;99101.53;10362361;28;20041;-61
2021/07/13 04:16:53;;;;;;;27.15;16.90;;;;;;;19.53;68.50;99088.56;10362126;28;20054;-61
2021/07/13 04:21:55;;;;;;;17.90;11.82;;;;;;;19.55;68.16;99082.09;10377234;28;20046;-60
2021/07/13 04:26:57;;;;;;;18.20;12.25;;;;;;;19.45;68.28;99082.28;10361468;28;20144;-61
2021/07/13 04:31:59;;;;;;;11.57;10.38;;;;;;;19.43;68.44;99078.97;10362721;28;20057;-61
2021/07/13 04:37:02;;;;;;;10.98;8.90;;;;;;;19.42;68.06;99066.69;10360968;28;20060;-61
2021/07/13 04:42:03;;;;;;;26.98;18.02;;;;;;;19.24;68.79;99059.94;10361063;28;20140;-60
2021/07/13 04:47:05;;;;;;;20.83;13.68;;;;;;;19.06;69.09;99054.81;10361122;28;20120;-61
2021/07/13 04:52:07;;;;;;;20.58;16.20;;;;;;;19.10;69.07;99061.44;10367713;28;20174;-60
2021/07/13 04:57:08;;;;;;;14.40;11.20;;;;;;;19.02;69.36;99050.84;10368369;28;20137;-61
2021/07/13 05:02:10;;;;;;;20.45;15.07;;;;;;;19.18;69.42;99065.91;10367207;28;20046;-61
2021/07/13 05:07:12;;;;;;;15.68;13.43;;;;;;;19.23;69.18;99056.47;10367806;28;20588;-61
2021/07/13 05:12:14;;;;;;;17.65;9.95;;;;;;;19.31;68.94;99063.56;10368282;28;20481;-61
2021/07/13 05:17:15;;;;;;;17.27;13.45;;;;;;;19.32;69.25;99060.75;10367741;28;20137;-60
2021/07/13 05:22:19;;;;;;;18.35;14.45;;;;;;;19.53;68.72;99072.63;10368305;28;20173;-61
2021/07/13 05:27:22;;;;;;;24.38;16.80;;;;;;;19.65;68.81;99065.97;10368308;28;20060;-60
2021/07/13 05:32:24;;;;;;;13.60;10.45;;;;;;;19.68;68.59;99069.16;10367575;28;20053;-61
2021/07/13 05:37:25;;;;;;;15.18;12.07;;;;;;;19.71;68.50;99070.59;10367248;28;20533;-61
2021/07/13 05:42:27;;;;;;;16.25;12.15;;;;;;;19.69;68.20;99064.66;10367820;28;20080;-60
2021/07/13 05:47:29;;;;;;;14.55;10.80;;;;;;;19.67;68.29;99061.34;10366045;28;20091;-60
2021/07/13 05:52:31;;;;;;;13.82;10.00;;;;;;;19.63;67.92;99065.31;10366733;28;20077;-60
2021/07/13 05:57:33;;;;;;;7.72;6.75;;;;;;;19.79;67.59;99046.69;10364864;28;20440;-61
2021/07/13 06:02:34;;;;;;;14.63;10.05;;;;;;;19.60;67.92;99047.94;10365668;28;20113;-61
2021/07/13 06:07:45;;;;;;;19.70;14.63;;;;;;;19.68;68.85;99057.69;10365256;28;20042;-60
2021/07/13 06:12:49;;;;;;;28.38;16.67;;;;;;;19.87;68.29;99059.97;10366295;28;20046;-61
2021/07/13 06:17:51;;;;;;;13.30;8.90;;;;;;;19.83;68.00;99062.16;10365859;28;20046;-61
2021/07/13 06:22:53;;;;;;;8.48;6.80;;;;;;;19.67;68.03;99069.28;10365721;28;20136;-61
2021/07/13 06:27:54;;;;;;;11.43;8.60;;;;;;;19.79;67.93;99067.94;10365650;28;20056;-61
2021/07/13 06:32:56;;;;;;;14.55;10.73;;;;;;;19.92;68.08;99062.94;10360608;28;20498;-61
2021/07/13 06:37:59;;;;;;;15.45;11.38;;;;;;;20.08;67.49;99074.34;10341482;28;20756;-61
2021/07/13 06:43:00;;;;;;;12.15;9.55;;;;;;;20.21;67.10;99071.94;10351047;28;20410;-60
2021/07/13 06:48:02;;;;;;;16.30;11.13;;;;;;;20.22;66.96;99064.81;10360925;28;20138;-61
2021/07/13 06:53:04;;;;;;;11.90;10.18;;;;;;;20.28;66.95;99058.78;10390383;28;20133;-61
2021/07/13 06:58:06;;;;;;;13.82;10.48;;;;;;;20.42;66.82;99054.59;10403003;28;20128;-60
2021/07/13 07:03:08;;;;;;;10.45;8.45;;;;;;;20.71;66.22;99060.06;10418444;28;20053;-61
2021/07/13 07:08:10;;;;;;;12.27;8.93;;;;;;;20.86;65.98;99063.59;10402349;28;20543;-61
2021/07/13 07:13:11;;;;;;;13.10;8.20;;;;;;;21.09;64.97;99069.72;10401591;28;20071;-61
2021/07/13 07:18:13;;;;;;;10.48;7.80;;;;;;;21.05;65.17;99074.56;10416997;28;20057;-61
2021/07/13 07:23:15;;;;;;;10.73;7.30;;;;;;;20.97;65.11;99077.28;10402545;28;20132;-61
2021/07/13 07:28:17;;;;;;;10.60;6.65;;;;;;;20.79;64.78;99081.25;10402150;28;20054;-61
2021/07/13 07:33:19;;;;;;;9.95;6.63;;;;;;;20.70;65.19;99085.00;10425150;28;20148;-61
2021/07/13 07:38:22;;;;;;;10.50;7.32;;;;;;;20.56;65.58;99083.06;10399734;28;20128;-61
2021/07/13 07:43:24;;;;;;;11.48;6.38;;;;;;;20.40;65.78;99083.94;10411428;28;20055;-62
2021/07/13 07:48:25;;;;;;;8.80;5.93;;;;;;;20.33;65.88;99090.97;10397114;28;20050;-62
2021/07/13 07:53:27;;;;;;;13.10;8.07;;;;;;;20.41;66.59;99084.78;10398646;28;20503;-62
2021/07/13 07:58:29;;;;;;;12.60;8.07;;;;;;;20.45;66.64;99094.91;10395659;28;20060;-62
2021/07/13 08:03:31;;;;;;;9.38;5.97;;;;;;;20.69;66.26;99091.28;10415454;28;20066;-62
2021/07/13 08:08:32;;;;;;;7.07;5.60;;;;;;;20.84;65.73;99094.84;10398507;28;20056;-62
2021/07/13 08:13:34;;;;;;;6.53;5.13;;;;;;;21.08;65.51;99076.88;10408171;28;20123;-62
2021/07/13 08:18:39;;;;;;;7.07;4.90;;;;;;;21.26;64.83;99086.38;10413344;28;20053;-62
2021/07/13 08:23:41;;;;;;;9.18;6.20;;;;;;;21.40;64.78;99078.44;10400433;28;20053;-62
2021/07/13 08:28:43;;;;;;;8.65;4.70;;;;;;;21.52;64.04;99077.00;10405665;28;20073;-62
2021/07/13 08:33:44;;;;;;;8.45;5.55;;;;;;;21.82;63.44;99078.66;10412976;28;20379;-63
2021/07/13 08:38:46;;;;;;;8.48;5.43;;;;;;;22.17;63.08;99069.13;10406468;28;20466;-62
2021/07/13 08:43:50;;;;;;;6.30;4.80;;;;;;;22.53;60.78;99061.97;10408059;28;20548;-63
2021/07/13 08:48:54;;;;;;;6.97;4.38;;;;;;;22.66;60.28;99056.78;10409124;28;20163;-62
2021/07/13 08:53:56;;;;;;;8.10;5.30;;;;;;;22.55;60.48;99056.47;10407939;28;20053;-62
2021/07/13 08:58:59;;;;;;;6.55;4.20;;;;;;;22.14;60.65;99066.00;10408060;28;20081;-62
2021/07/13 09:04:05;;;;;;;5.13;4.10;;;;;;;22.02;60.68;99073.63;10422586;28;20037;-63
2021/07/13 09:09:11;;;;;;;9.57;5.00;;;;;;;22.10;61.53;99070.88;10407269;28;20525;-62
2021/07/13 09:14:12;;;;;;;6.38;4.28;;;;;;;22.04;61.28;99082.28;10407344;28;20405;-63
2021/07/13 09:19:14;;;;;;;7.40;4.15;;;;;;;21.97;61.01;99078.66;10407786;28;20049;-62
2021/07/13 09:24:20;;;;;;;7.03;4.20;;;;;;;21.98;62.72;99085.66;10406319;28;20042;-63
2021/07/13 09:29:34;;;;;;;9.05;4.63;;;;;;;22.02;62.66;99094.94;10402908;28;20504;-62
2021/07/13 09:34:36;;;;;;;6.95;4.07;;;;;;;21.88;62.85;99085.09;10403341;28;20589;-62
2021/07/13 09:39:39;;;;;;;7.65;5.38;;;;;;;21.67;64.19;99075.19;10404163;28;20087;-62
2021/07/13 09:44:41;;;;;;;8.15;4.80;;;;;;;21.53;64.56;99070.69;10405187;28;20079;-63
2021/07/13 09:49:43;;;;;;;6.43;3.92;;;;;;;21.80;63.30;99071.88;10406341;28;20057;-62
2021/07/13 09:54:46;;;;;;;6.72;3.65;;;;;;;22.04;62.86;99068.97;10405128;28;20045;-62
2021/07/13 09:59:55;;;;;;;5.80;3.25;;;;;;;22.30;61.86;99061.28;10410600;28;20167;-62
2021/07/13 10:04:58;;;;;;;5.65;3.60;;;;;;;22.46;61.96;99069.06;10425888;28;20053;-62
2021/07/13 10:10:00;;;;;;;5.90;3.70;;;;;;;22.80;60.96;99059.63;10403842;28;20076;-62
2021/07/13 10:15:02;;;;;;;7.20;3.63;;;;;;;23.14;59.91;99070.38;10404009;28;20076;-63
2021/07/13 10:20:09;;;;;;;6.65;3.65;;;;;;;23.03;60.24;99073.56;10403246;28;20048;-63
2021/07/13 10:25:12;;;;;;;6.07;3.88;;;;;;;22.89;60.05;99066.44;10404216;28;20064;-63
2021/07/13 10:30:17;;;;;;;6.32;3.40;;;;;;;23.06;59.10;99058.00;10402669;28;20085;-63
2021/07/13 10:35:23;;;;;;;7.35;3.13;;;;;;;23.43;58.46;99067.56;10403172;28;20058;-62
2021/07/13 10:40:24;;;;;;;6.72;2.92;;;;;;;23.71;57.88;99076.38;10399733;28;20516;-62
2021/07/13 10:45:28;;;;;;;5.95;3.05;;;;;;;23.86;57.39;99089.63;10400504;28;20421;-63
2021/07/13 10:50:30;;;;;;;6.72;3.25;;;;;;;23.70;56.28;99093.41;10392740;28;20050;-62
2021/07/13 10:55:32;;;;;;;7.10;3.30;;;;;;;23.51;57.75;99083.44;10412807;28;20091;-62
2021/07/13 11:00:54;;;;;;;6.80;3.30;;;;;;;23.50;57.81;99076.44;10404621;28;20049;-63
2021/07/13 11:05:55;;;;;;;8.65;3.13;;;;;;;23.83;57.25;99066.81;10402417;28;20088;-62
2021/07/13 11:10:57;;;;;;;3.88;2.65;;;;;;;24.48;55.97;99046.75;10401717;28;20470;-62
2021/07/13 11:15:59;;;;;;;7.63;3.10;;;;;;;24.86;54.87;99047.88;10401964;28;20485;-63
2021/07/13 11:21:30;;;;;;;8.00;3.20;;;;;;;25.09;52.75;99035.75;10400322;28;20517;-62
2021/07/13 11:26:34;;;;;;;9.25;2.70;;;;;;;25.16;52.95;99037.63;10398086;28;20128;-63
2021/07/13 11:31:40;;;;;;;6.25;2.60;;;;;;;25.24;52.70;99034.72;10402109;28;20056;-62
2021/07/13 11:36:46;;;;;;;5.35;2.55;;;;;;;24.96;52.50;99035.75;10395210;28;20049;-62
2021/07/13 11:41:54;;;;;;;5.22;2.75;;;;;;;25.13;52.84;99030.81;10398781;28;20052;-63
2021/07/13 11:46:56;;;;;;;6.65;2.92;;;;;;;25.47;51.68;99025.25;10400807;28;20501;-62
2021/07/13 11:52:01;;;;;;;5.13;2.35;;;;;;;25.45;51.15;99031.84;10416792;28;20049;-62
2021/07/13 11:57:05;;;;;;;4.43;2.40;;;;;;;25.26;50.77;99041.53;10401074;28;20072;-63
2021/07/13 12:02:08;;;;;;;5.00;2.70;;;;;;;25.14;51.46;99045.03;10409878;28;20042;-62
2021/07/13 12:07:10;;;;;;;7.32;2.88;;;;;;;24.63;51.19;99048.25;10431658;28;20077;-63
2021/07/13 12:12:14;;;;;;;6.30;2.80;;;;;;;24.68;52.37;99047.59;10409400;28;20049;-62
2021/07/13 12:17:19;;;;;;;5.43;2.70;;;;;;;24.63;52.44;99058.09;10406476;28;20128;-63
2021/07/13 12:22:23;;;;;;;4.43;2.53;;;;;;;25.19;51.80;99054.06;10405248;28;20481;-63
2021/07/13 12:27:25;;;;;;;11.25;3.92;;;;;;;25.52;50.72;99040.69;10368179;28;20046;-62
2021/07/13 12:32:33;;;;;;;5.35;2.85;;;;;;;25.36;50.36;99039.28;10409142;28;20140;-63
2021/07/13 12:37:35;;;;;;;7.03;3.10;;;;;;;25.48;49.78;99037.63;10408373;28;20053;-63
2021/07/13 12:42:42;;;;;;;4.20;2.50;;;;;;;25.83;48.07;99063.06;10406078;28;20132;-63
2021/07/13 12:47:48;;;;;;;6.55;2.53;;;;;;;25.79;47.55;99071.75;10409252;28;20441;-63
2021/07/13 12:53:00;;;;;;;4.93;2.70;;;;;;;26.00;46.78;99051.94;10436999;28;20612;-63
2021/07/13 12:58:16;;;;;;;5.85;2.30;;;;;;;25.99;45.92;99044.94;10400732;28;20053;-63
2021/07/13 13:03:37;;;;;;;4.80;2.40;;;;;;;25.71;45.95;99050.56;10396764;28;20050;-62
2021/07/13 13:08:43;;;;;;;3.63;2.35;;;;;;;25.90;46.46;99045.13;10406186;28;20053;-60
2021/07/13 13:13:46;;;;;;;3.85;2.20;;;;;;;26.18;44.64;99038.69;10408554;28;20125;-62
2021/07/13 13:18:55;;;;;;;4.00;2.40;;;;;;;25.89;44.61;99023.91;10443230;28;20047;-62
2021/07/13 13:24:01;;;;;;;4.97;2.33;;;;;;;25.57;45.78;99030.19;10417371;28;20073;-62
2021/07/13 13:29:03;;;;;;;7.00;2.30;;;;;;;25.61;46.36;99040.25;10406291;28;20045;-62
2021/07/13 13:34:05;;;;;;;4.05;2.50;;;;;;;25.84;46.83;99037.94;10406510;28;20057;-62
2021/07/13 13:39:18;;;;;;;5.13;2.35;;;;;;;25.72;45.46;99049.50;10405549;28;20137;-63
2021/07/13 13:44:20;;;;;;;5.30;2.40;;;;;;;25.39;46.54;99041.53;10400329;28;20046;-62
2021/07/13 13:49:21;;;;;;;5.93;2.53;;;;;;;25.37;47.40;99037.41;10405928;28;20128;-62
2021/07/13 13:54:23;;;;;;;5.10;2.63;;;;;;;25.24;47.86;99048.09;10402092;28;20049;-62
2021/07/13 13:59:26;;;;;;;5.47;2.53;;;;;;;24.91;45.97;99054.28;10400989;28;20049;-62
2021/07/13 14:04:28;;;;;;;2.92;2.13;;;;;;;25.01;45.58;99064.56;10404600;28;20501;-62
2021/07/13 14:09:29;;;;;;;3.17;2.20;;;;;;;25.48;44.74;99060.88;10397901;28;20091;-62
2021/07/13 14:14:55;;;;;;;3.85;2.60;;;;;;;25.29;45.37;99050.97;10414131;28;20049;-62
2021/07/13 14:19:57;;;;;;;4.72;2.67;;;;;;;25.24;45.54;99048.94;10428529;28;20437;-62
2021/07/13 14:24:59;;;;;;;4.78;2.67;;;;;;;25.02;47.51;99058.16;10402668;28;20096;-62
2021/07/13 14:30:02;;;;;;;4.00;2.38;;;;;;;24.95;47.76;99073.41;10418202;28;20168;-62
2021/07/13 14:35:04;;;;;;;3.90;2.75;;;;;;;24.76;47.05;99063.50;10403442;28;20521;-62
2021/07/13 14:40:07;;;;;;;6.55;2.80;;;;;;;24.10;48.34;99068.59;10402913;28;20156;-62
2021/07/13 14:45:10;;;;;;;10.73;3.00;;;;;;;23.89;50.74;99058.00;10400991;28;20457;-62
2021/07/13 14:50:12;;;;;;;3.97;2.90;;;;;;;24.08;51.71;99049.28;10402362;28;20055;-62
2021/07/13 14:55:13;;;;;;;4.75;3.20;;;;;;;24.19;50.13;99048.72;10401770;28;20649;-62
2021/07/13 15:00:15;;;;;;;6.55;3.00;;;;;;;24.12;51.31;99033.69;10404017;28;20052;-62
2021/07/13 15:05:17;;;;;;;5.35;2.83;;;;;;;24.05;51.02;99044.31;10426935;28;20429;-62
2021/07/13 15:10:19;;;;;;;5.75;3.38;;;;;;;24.21;52.78;99046.66;10402691;28;20490;-62
2021/07/13 15:15:23;;;;;;;5.75;3.03;;;;;;;24.03;52.64;99043.69;10402727;28;20069;-62
2021/07/13 15:20:25;;;;;;;5.95;3.53;;;;;;;23.93;54.36;99056.59;10402803;28;20140;-63
2021/07/13 15:25:27;;;;;;;14.07;3.90;;;;;;;23.04;57.43;99077.88;10402721;28;20082;-63
2021/07/13 15:30:29;;;;;;;21.05;6.90;;;;;;;20.16;65.32;99100.84;10402396;28;20140;-65
2021/07/13 15:35:31;;;;;;;86.28;21.95;;;;;;;19.92;68.01;99094.78;10424374;28;20081;-65
2021/07/13 15:40:33;;;;;;;6.53;4.80;;;;;;;19.94;67.55;99098.94;10416924;28;20045;-64
2021/07/13 15:45:35;;;;;;;7.97;5.88;;;;;;;19.92;68.64;99090.31;10410593;28;20478;-64
2021/07/13 15:50:37;;;;;;;9.70;5.93;;;;;;;19.88;68.28;99089.00;10402914;28;20394;-64
2021/07/13 15:55:39;;;;;;;21.70;9.93;;;;;;;19.70;69.63;99079.56;10421953;28;20060;-64
2021/07/13 16:00:41;;;;;;;5.97;4.22;;;;;;;19.66;68.76;99072.97;10400539;28;20045;-64
2021/07/13 16:05:43;;;;;;;6.70;5.43;;;;;;;19.84;69.23;99065.63;10378794;28;20139;-64
2021/07/13 16:10:45;;;;;;;6.88;4.22;;;;;;;20.09;68.69;99072.50;10402082;28;20060;-64
2021/07/13 16:15:47;;;;;;;9.45;6.18;;;;;;;20.02;69.32;99075.03;10403097;28;20136;-63
2021/07/13 16:20:49;;;;;;;6.45;3.70;;;;;;;19.96;69.46;99054.47;10400925;28;20059;-64
2021/07/13 16:25:51;;;;;;;8.27;4.97;;;;;;;20.24;68.86;99058.31;10399349;28;20529;-63
2021/07/13 16:30:53;;;;;;;8.07;3.00;;;;;;;20.40;67.59;99057.41;10398365;28;20045;-64
2021/07/13 16:35:54;;;;;;;6.10;3.03;;;;;;;20.75;66.81;99077.28;10397798;28;20618;-64
2021/07/13 16:40:56;;;;;;;9.82;3.78;;;;;;;20.85;67.18;99080.53;10395800;28;20128;-64
2021/07/13 16:46:00;;;;;;;3.88;3.20;;;;;;;20.98;67.24;99084.28;10402946;28;20045;-64
2021/07/13 16:51:02;;;;;;;4.05;3.38;;;;;;;20.76;67.14;99098.41;10407753;28;20128;-64
2021/07/13 16:56:04;;;;;;;6.30;3.10;;;;;;;20.38;67.30;99115.16;10404793;28;20049;-63
2021/07/13 17:01:06;;;;;;;4.30;3.05;;;;;;;20.26;67.89;99108.59;10407027;28;20059;-64
2021/07/13 17:06:09;;;;;;;5.53;2.70;;;;;;;20.21;68.18;99101.13;10407487;28;20059;-64
2021/07/13 17:11:10;;;;;;;4.35;2.17;;;;;;;20.13;67.15;99097.72;10407333;28;20060;-63
2021/07/13 17:16:12;;;;;;;7.70;2.08;;;;;;;20.11;66.91;99105.81;10406802;28;20543;-63
2021/07/13 17:21:14;;;;;;;6.80;2.20;;;;;;;19.95;67.12;99121.81;10406659;28;20498;-64
2021/07/13 17:26:16;;;;;;;4.43;1.70;;;;;;;19.81;67.72;99127.81;10406577;28;20136;-64
2021/07/13 17:31:18;;;;;;;5.22;1.85;;;;;;;19.80;67.49;99136.78;10403866;28;20045;-63
2021/07/13 17:36:20;;;;;;;6.03;1.83;;;;;;;19.71;67.43;99151.03;10404986;28;20077;-63
2021/07/13 17:41:22;;;;;;;6.95;2.00;;;;;;;19.82;68.22;99156.03;10403370;28;20080;-63
2021/07/13 17:46:23;;;;;;;5.25;2.30;;;;;;;20.11;68.04;99152.81;10404306;28;20088;-63
2021/07/13 17:51:26;;;;;;;5.00;2.10;;;;;;;20.26;67.96;99159.03;10393530;28;20068;-63
2021/07/13 17:56:27;;;;;;;6.57;2.20;;;;;;;20.37;67.42;99142.75;10403713;28;20147;-63
2021/07/13 18:01:29;;;;;;;4.28;1.80;;;;;;;20.32;66.79;99146.91;10399292;28;20077;-63
2021/07/13 18:06:32;;;;;;;3.95;1.63;;;;;;;20.16;66.90;99155.75;10396185;28;20486;-63
2021/07/13 18:11:34;;;;;;;5.78;1.73;;;;;;;20.19;66.58;99155.44;10398638;28;20136;-63
2021/07/13 18:16:35;;;;;;;4.38;1.40;;;;;;;20.20;66.17;99159.72;10401437;28;20528;-63
2021/07/13 18:21:37;;;;;;;6.88;1.50;;;;;;;20.21;66.03;99162.22;10402466;28;20600;-63
2021/07/13 18:26:39;;;;;;;5.20;1.30;;;;;;;20.08;65.80;99153.13;10403539;28;20128;-63
2021/07/13 18:31:41;;;;;;;3.83;1.20;;;;;;;20.07;65.68;99147.00;10402618;28;20089;-63
2021/07/13 18:36:43;;;;;;;3.00;1.08;;;;;;;20.09;64.93;99141.53;10399255;28;20045;-63
2021/07/13 18:41:45;;;;;;;6.78;1.13;;;;;;;20.03;65.37;99150.19;10404302;28;20044;-63
2021/07/13 18:46:47;;;;;;;3.75;1.02;;;;;;;19.89;65.26;99158.81;10405447;28;20070;-61
2021/07/13 18:51:50;;;;;;;1.58;0.95;;;;;;;19.77;65.62;99168.94;10424149;28;20424;-61
2021/07/13 18:56:51;;;;;;;2.63;1.00;;;;;;;19.78;65.03;99159.16;10401174;28;20049;-62
2021/07/13 19:01:54;;;;;;;5.18;1.02;;;;;;;19.72;65.45;99173.94;10400783;28;20048;-61
2021/07/13 19:06:56;;;;;;;4.30;1.00;;;;;;;19.59;65.46;99178.91;10399223;28;20049;-61
2021/07/13 19:11:58;;;;;;;5.45;1.00;;;;;;;19.58;65.93;99173.78;10400000;28;20053;-62
2021/07/13 19:17:00;;;;;;;5.97;1.20;;;;;;;19.54;66.25;99159.19;10404223;28;20367;-61
2021/07/13 19:22:02;;;;;;;7.25;1.40;;;;;;;19.55;66.13;99166.13;10402510;28;20052;-61
2021/07/13 19:27:04;;;;;;;6.47;1.10;;;;;;;19.48;66.34;99175.75;10404097;28;20059;-61
2021/07/13 19:32:14;;;;;;;8.38;1.30;;;;;;;19.37;66.40;99191.00;10403781;28;20053;-61
2021/07/13 19:37:34;;;;;;;;;;;;;;;18.97;67.81;99198.84;10403455;28;20144;-61
2021/07/13 19:42:37;;;;;;;8.63;1.65;;;;;;;19.17;66.78;99197.63;10403186;28;20003;-61
2021/07/13 19:47:40;;;;;;;3.00;0.90;;;;;;;19.20;66.25;99194.63;10403678;28;20570;-61
2021/07/13 19:52:43;;;;;;;4.07;0.98;;;;;;;19.29;66.15;99204.28;10403086;28;20053;-61
2021/07/13 19:57:45;;;;;;;6.75;1.65;;;;;;;19.29;65.39;99212.22;10403072;28;20053;-61
2021/07/13 20:02:47;;;;;;;7.85;1.30;;;;;;;19.18;65.98;99215.19;10402851;28;20152;-61
2021/07/13 20:07:49;;;;;;;6.22;1.00;;;;;;;19.15;65.71;99217.34;10401489;28;20045;-61
2021/07/13 20:12:51;;;;;;;4.05;1.10;;;;;;;18.90;66.45;99202.31;10403119;28;20129;-61
2021/07/13 20:17:53;;;;;;;7.32;0.70;;;;;;;18.90;66.52;99211.13;10402402;28;20045;-61
2021/07/13 20:22:58;;;;;;;9.63;1.10;;;;;;;18.94;66.78;99209.81;10409374;28;20041;-61
2021/07/13 20:27:59;;;;;;;6.18;0.90;;;;;;;18.91;66.47;99212.75;10410258;28;20136;-61
2021/07/13 20:33:01;;;;;;;6.55;1.08;;;;;;;18.98;66.35;99221.72;10410138;28;20117;-61
2021/07/13 20:38:03;;;;;;;11.98;1.00;;;;;;;19.00;65.75;99222.41;10407773;28;20388;-61
2021/07/13 20:43:05;;;;;;;6.72;0.95;;;;;;;18.89;65.80;99212.09;10396644;28;20045;-61
2021/07/13 20:48:07;;;;;;;5.53;0.80;;;;;;;18.91;65.55;99209.31;10410118;28;20513;-61
2021/07/13 20:53:08;;;;;;;2.67;0.70;;;;;;;18.84;64.98;99219.72;10409619;28;20092;-61
2021/07/13 20:58:10;;;;;;;5.25;0.95;;;;;;;18.81;65.12;99219.22;10410094;28;20132;-61
2021/07/13 21:03:12;;;;;;;2.17;0.80;;;;;;;18.77;65.64;99208.09;10409609;28;20051;-61
2021/07/13 21:08:14;;;;;;;4.47;1.10;;;;;;;18.72;65.23;99212.22;10407389;28;20124;-62
2021/07/13 21:13:15;;;;;;;8.65;1.10;;;;;;;18.83;65.30;99201.34;10409406;28;20136;-61
2021/07/13 21:18:17;;;;;;;3.33;0.90;;;;;;;18.80;64.61;99202.47;10408138;28;20045;-61
2021/07/13 21:23:19;;;;;;;5.40;1.00;;;;;;;18.72;64.64;99221.00;10408387;28;20403;-62
2021/07/13 21:28:21;;;;;;;7.00;1.90;;;;;;;18.62;64.98;99215.84;10407686;28;20124;-61
2021/07/13 21:33:22;;;;;;;4.25;1.00;;;;;;;18.52;64.81;99209.00;10407644;28;20144;-61
2021/07/13 21:38:24;;;;;;;4.13;1.10;;;;;;;18.51;64.60;99212.63;10406657;28;20063;-61
2021/07/13 21:43:26;;;;;;;2.80;0.80;;;;;;;18.48;64.80;99205.81;10408165;28;20069;-61
2021/07/13 21:48:28;;;;;;;6.30;0.98;;;;;;;18.49;64.90;99209.31;10407296;28;20073;-61
2021/07/13 21:53:30;;;;;;;6.20;1.27;;;;;;;18.47;65.32;99211.28;10407573;28;20107;-61
2021/07/13 21:58:31;;;;;;;5.20;1.00;;;;;;;18.51;64.55;99204.69;10408892;28;20136;-61
2021/07/13 22:03:33;;;;;;;6.43;1.10;;;;;;;18.45;65.21;99207.97;10407284;28;20045;-61
2021/07/13 22:08:35;;;;;;;5.28;0.90;;;;;;;18.44;65.04;99207.13;10421416;28;20129;-61
2021/07/13 22:13:37;;;;;;;10.13;1.50;;;;;;;18.41;64.80;99218.06;10407477;28;20371;-61
2021/07/13 22:18:39;;;;;;;3.92;0.95;;;;;;;18.40;65.07;99220.88;10406819;28;20068;-61
2021/07/13 22:23:40;;;;;;;6.38;1.10;;;;;;;18.35;64.50;99226.63;10406704;28;20049;-61
2021/07/13 22:28:42;;;;;;;7.43;0.98;;;;;;;18.31;64.26;99229.75;10406388;28;20128;-61
2021/07/13 22:33:46;;;;;;;4.40;0.90;;;;;;;18.20;64.64;99224.75;10407030;28;20124;-61
2021/07/13 22:38:48;;;;;;;4.03;1.00;;;;;;;18.28;64.60;99220.28;10405077;28;20060;-61
2021/07/13 22:43:50;;;;;;;8.00;1.10;;;;;;;18.28;64.22;99212.34;10406347;28;20136;-61
2021/07/13 22:48:51;;;;;;;5.97;1.10;;;;;;;18.24;64.25;99218.94;10406234;28;20164;-61
2021/07/13 22:53:53;;;;;;;2.83;0.98;;;;;;;18.26;63.82;99219.63;10405655;28;20084;-61
2021/07/13 22:58:55;;;;;;;4.05;1.00;;;;;;;18.27;64.04;99231.03;10405406;28;20477;-61
2021/07/13 23:03:56;;;;;;;5.07;1.08;;;;;;;18.28;63.77;99243.31;10405252;28;20532;-61
2021/07/13 23:08:58;;;;;;;6.38;1.10;;;;;;;18.19;64.06;99233.63;10404618;28;20053;-61
2021/07/13 23:14:00;;;;;;;2.60;1.20;;;;;;;18.21;64.09;99252.84;10405070;28;20077;-61
2021/07/13 23:19:09;;;;;;;3.88;1.20;;;;;;;18.13;64.43;99266.84;10403855;28;20083;-61
2021/07/13 23:24:11;;;;;;;2.27;1.00;;;;;;;18.11;64.03;99247.63;10404784;28;20132;-61